アンマン の空港の天気 - METARとTAF

クィーンアリア国際空港 ( OJAI / AMM ) - ヨルダン アンマン
飛行場実況気象(Metar)
観測時間11/21 14:00 EET (11/21 12:00 UTC)
風向・風速南南東 5m/s
視程5000m
天気現象煙霧
なし
気温19℃
湿度5%
気圧1018hPa
METAROJAI 211200Z 15010KT 5000 HZ NSC 19/M21 Q1018 NOSIG
過去の天気等 Google飛行場航空写真 Wunderground天気予報

過去48時間のMETAR

飛行場予報(TAF)
発表時間: 11/21 13:00 EET (11/21 11:00 UTC)
予報対象時間: 21日14時 EET ~ 22日20時 EET
風向・風速南東 6m/s
視程5000m
天気現象煙霧
なし
TAF OJAI 211100Z 2112/2218 13012KT 5000 HZ NSC